createdAt,value
2018-12-13T00:00:38.806Z,15.74
2018-12-13T00:01:40.577Z,15.74
2018-12-13T00:02:42.341Z,15.73
2018-12-13T00:03:44.094Z,15.71
2018-12-13T00:04:45.893Z,15.72
2018-12-13T00:05:47.648Z,15.71
2018-12-13T00:06:49.409Z,15.70
2018-12-13T00:07:51.177Z,15.70
2018-12-13T00:08:52.927Z,15.71
2018-12-13T00:09:54.679Z,15.70
2018-12-13T00:10:56.426Z,15.70
2018-12-13T00:11:58.186Z,15.70
2018-12-13T00:12:59.953Z,15.69
2018-12-13T00:14:01.694Z,15.69
2018-12-13T00:15:03.485Z,15.69
2018-12-13T00:16:05.230Z,15.69
2018-12-13T00:17:06.986Z,15.68
2018-12-13T00:18:08.736Z,15.68
2018-12-13T00:19:10.488Z,15.67
2018-12-13T00:20:12.330Z,15.66
2018-12-13T00:21:14.252Z,15.67
2018-12-13T00:22:16.010Z,15.67
2018-12-13T00:23:17.780Z,15.67
2018-12-13T00:24:19.556Z,15.66
2018-12-13T00:25:21.326Z,15.66
2018-12-13T00:26:23.084Z,15.66
2018-12-13T00:27:24.822Z,15.67
2018-12-13T00:28:26.578Z,15.66
2018-12-13T00:29:28.944Z,15.66
2018-12-13T00:30:30.707Z,15.65
2018-12-13T00:31:32.459Z,15.66
2018-12-13T00:32:34.206Z,15.64
2018-12-13T00:33:35.954Z,15.65
2018-12-13T00:34:37.704Z,15.64
2018-12-13T00:35:39.474Z,15.65
2018-12-13T00:36:41.236Z,15.65
2018-12-13T00:37:42.996Z,15.65
2018-12-13T00:38:44.752Z,15.66
2018-12-13T00:39:46.504Z,15.66
2018-12-13T00:40:48.294Z,15.66
2018-12-13T00:41:50.040Z,15.67
2018-12-13T00:42:51.815Z,15.66
2018-12-13T00:43:53.565Z,15.66
2018-12-13T00:44:56.614Z,15.66
2018-12-13T00:45:58.388Z,15.66
2018-12-13T00:47:00.143Z,15.66
2018-12-13T00:48:01.894Z,15.66
2018-12-13T00:49:03.649Z,15.66
2018-12-13T00:50:05.437Z,15.66
2018-12-13T00:51:07.302Z,15.65
2018-12-13T00:52:09.053Z,15.66
2018-12-13T00:53:10.799Z,15.67
2018-12-13T00:54:12.550Z,15.66
2018-12-13T00:55:14.321Z,15.66
2018-12-13T00:56:16.094Z,15.67
2018-12-13T00:57:18.090Z,15.67
2018-12-13T00:58:19.835Z,15.66
2018-12-13T00:59:21.584Z,15.66
2018-12-13T01:00:23.343Z,15.66
2018-12-13T01:01:25.125Z,15.65
2018-12-13T01:02:26.882Z,15.67
2018-12-13T01:03:28.640Z,15.68
2018-12-13T01:04:30.401Z,15.67
2018-12-13T01:05:32.182Z,15.67
2018-12-13T01:06:33.956Z,15.67
2018-12-13T01:07:35.707Z,15.67
2018-12-13T01:08:37.445Z,15.68
2018-12-13T01:09:40.160Z,15.67
2018-12-13T01:10:41.911Z,15.67
2018-12-13T01:11:43.719Z,15.67
2018-12-13T01:12:45.465Z,15.68
2018-12-13T01:13:47.219Z,15.67
2018-12-13T01:14:48.969Z,15.66
2018-12-13T01:15:50.711Z,15.67
2018-12-13T01:16:52.501Z,15.68
2018-12-13T01:17:54.263Z,15.68
2018-12-13T01:18:56.035Z,15.67
2018-12-13T01:19:57.801Z,15.68
2018-12-13T01:20:59.555Z,15.69
2018-12-13T01:22:01.353Z,15.69
2018-12-13T01:23:03.119Z,15.68
2018-12-13T01:24:04.889Z,15.69
2018-12-13T01:25:06.675Z,15.70
2018-12-13T01:26:08.419Z,15.69
2018-12-13T01:27:10.215Z,15.69
2018-12-13T01:28:11.965Z,15.68
2018-12-13T01:29:13.715Z,15.70
2018-12-13T01:30:15.521Z,15.69
2018-12-13T01:31:17.341Z,15.70
2018-12-13T01:32:19.131Z,15.70
2018-12-13T01:33:20.894Z,15.70
2018-12-13T01:34:22.679Z,15.71
2018-12-13T01:35:24.458Z,15.70
2018-12-13T01:36:26.219Z,15.69
2018-12-13T01:37:27.990Z,15.71
2018-12-13T01:38:29.754Z,15.70
2018-12-13T01:39:31.522Z,15.71
2018-12-13T01:40:33.266Z,15.70
2018-12-13T01:41:35.028Z,15.70
2018-12-13T01:42:36.813Z,15.69
2018-12-13T01:43:38.567Z,15.71
2018-12-13T01:44:40.310Z,15.69
2018-12-13T01:45:42.111Z,15.70
2018-12-13T01:46:43.864Z,15.70
2018-12-13T01:47:45.610Z,15.71
2018-12-13T01:48:47.382Z,15.70
2018-12-13T01:49:49.138Z,15.70
2018-12-13T01:50:50.891Z,15.71
2018-12-13T01:51:52.656Z,15.71
2018-12-13T01:52:54.431Z,15.71
2018-12-13T01:53:56.255Z,15.70
2018-12-13T01:54:58.008Z,15.70
2018-12-13T01:55:59.766Z,15.70
2018-12-13T01:57:01.545Z,15.71
2018-12-13T01:58:03.316Z,15.71
2018-12-13T01:59:05.092Z,15.71
2018-12-13T02:00:07.112Z,15.71
2018-12-13T02:01:09.268Z,15.71
2018-12-13T02:02:11.037Z,15.71
2018-12-13T02:03:12.814Z,15.72
2018-12-13T02:04:14.566Z,15.72
2018-12-13T02:05:16.320Z,15.72
2018-12-13T02:06:18.076Z,15.73
2018-12-13T02:07:19.822Z,15.73
2018-12-13T02:08:21.599Z,15.72
2018-12-13T02:09:23.375Z,15.71
2018-12-13T02:10:25.128Z,15.72
2018-12-13T02:11:26.904Z,15.72
2018-12-13T02:12:28.663Z,15.72
2018-12-13T02:13:30.566Z,15.71
2018-12-13T02:14:32.326Z,15.71
2018-12-13T02:15:34.258Z,15.72
2018-12-13T02:16:36.010Z,15.73
2018-12-13T02:17:37.764Z,15.73
2018-12-13T02:18:39.646Z,15.72
2018-12-13T02:19:41.390Z,15.72
2018-12-13T02:20:43.157Z,15.71
2018-12-13T02:21:44.989Z,15.72
2018-12-13T02:22:46.857Z,15.71
2018-12-13T02:23:48.622Z,15.71
2018-12-13T02:24:50.401Z,15.73
2018-12-13T02:25:52.165Z,15.71
2018-12-13T02:26:53.911Z,15.71
2018-12-13T02:27:55.676Z,15.71
2018-12-13T02:28:57.878Z,15.71
2018-12-13T02:29:59.640Z,15.70
2018-12-13T02:31:01.416Z,15.70
2018-12-13T02:32:03.196Z,15.70
2018-12-13T02:33:04.966Z,15.71
2018-12-13T02:34:06.778Z,15.70
2018-12-13T02:35:08.553Z,15.72
2018-12-13T02:36:10.326Z,15.71
2018-12-13T02:37:12.080Z,15.71
2018-12-13T02:38:13.833Z,15.71
2018-12-13T02:39:15.629Z,15.71
2018-12-13T02:40:17.377Z,15.70
2018-12-13T02:41:19.136Z,15.70
2018-12-13T02:42:20.938Z,15.70
2018-12-13T02:43:22.700Z,15.70
2018-12-13T02:44:24.472Z,15.69
2018-12-13T02:45:26.225Z,15.69
2018-12-13T02:46:27.968Z,15.71
2018-12-13T02:47:29.720Z,15.70
2018-12-13T02:48:31.468Z,15.71
2018-12-13T02:49:33.236Z,15.71
2018-12-13T02:50:34.998Z,15.71
2018-12-13T02:51:36.741Z,15.70
2018-12-13T02:52:38.518Z,15.69
2018-12-13T02:53:40.278Z,15.69
2018-12-13T02:54:42.074Z,15.69
2018-12-13T02:55:43.813Z,15.69
2018-12-13T02:56:45.560Z,15.69
2018-12-13T02:57:47.324Z,15.69
2018-12-13T02:58:49.071Z,15.68
2018-12-13T02:59:50.860Z,15.69
2018-12-13T03:00:52.608Z,15.70
2018-12-13T03:01:54.349Z,15.69
2018-12-13T03:02:56.132Z,15.70
2018-12-13T03:03:57.918Z,15.71
2018-12-13T03:04:59.708Z,15.70
2018-12-13T03:06:01.472Z,15.71
2018-12-13T03:07:03.237Z,15.70
2018-12-13T03:08:04.982Z,15.71
2018-12-13T03:09:06.766Z,15.70
2018-12-13T03:10:08.537Z,15.69
2018-12-13T03:11:10.295Z,15.69
2018-12-13T03:12:12.034Z,15.69
2018-12-13T03:13:13.796Z,15.69
2018-12-13T03:14:16.126Z,15.69
2018-12-13T03:15:17.901Z,15.69
2018-12-13T03:16:20.837Z,15.69
2018-12-13T03:17:22.596Z,15.69
2018-12-13T03:18:24.352Z,15.69
2018-12-13T03:19:26.107Z,15.70
2018-12-13T03:20:27.896Z,15.68
2018-12-13T03:21:29.665Z,15.69
2018-12-13T03:22:31.420Z,15.67
2018-12-13T03:23:33.183Z,15.67
2018-12-13T03:24:34.938Z,15.68
2018-12-13T03:25:36.710Z,15.67
2018-12-13T03:26:38.466Z,15.67
2018-12-13T03:27:40.224Z,15.68
2018-12-13T03:28:41.991Z,15.67
2018-12-13T03:29:43.754Z,15.67
2018-12-13T03:30:45.540Z,15.68
2018-12-13T03:31:47.294Z,15.67
2018-12-13T03:32:49.042Z,15.66
2018-12-13T03:33:50.795Z,15.66
2018-12-13T03:34:52.540Z,15.66
2018-12-13T03:35:54.314Z,15.66
2018-12-13T03:36:56.068Z,15.68
2018-12-13T03:37:57.824Z,15.68
2018-12-13T03:38:59.585Z,15.69
2018-12-13T03:40:01.355Z,15.67
2018-12-13T03:41:03.129Z,15.67
2018-12-13T03:42:04.888Z,15.66
2018-12-13T03:43:06.629Z,15.66
2018-12-13T03:44:08.383Z,15.66
2018-12-13T03:45:10.137Z,15.68
2018-12-13T03:46:12.533Z,15.69
2018-12-13T03:47:14.293Z,15.67
2018-12-13T03:48:16.049Z,15.68
2018-12-13T03:49:19.460Z,15.67
2018-12-13T03:50:21.278Z,15.68
2018-12-13T03:51:23.108Z,15.67
2018-12-13T03:52:25.115Z,15.67
2018-12-13T03:53:26.887Z,15.67
2018-12-13T03:54:28.639Z,15.67
2018-12-13T03:55:30.397Z,15.67
2018-12-13T03:56:32.174Z,15.66
2018-12-13T03:57:33.978Z,15.66
2018-12-13T03:58:35.741Z,15.67
2018-12-13T03:59:37.515Z,15.67
2018-12-13T04:00:39.290Z,15.66
2018-12-13T04:01:41.067Z,15.67
2018-12-13T04:02:42.991Z,15.66
2018-12-13T04:03:44.783Z,15.65
2018-12-13T04:04:46.519Z,15.66
2018-12-13T04:05:48.267Z,15.66
2018-12-13T04:06:50.058Z,15.67
2018-12-13T04:07:51.815Z,15.67
2018-12-13T04:08:53.564Z,15.66
2018-12-13T04:09:55.326Z,15.67
2018-12-13T04:10:57.091Z,15.67
2018-12-13T04:11:58.867Z,15.66
2018-12-13T04:13:00.624Z,15.66
2018-12-13T04:14:02.375Z,15.66
2018-12-13T04:15:04.151Z,15.66
2018-12-13T04:16:05.906Z,15.66
2018-12-13T04:17:07.677Z,15.66
2018-12-13T04:18:09.445Z,15.66
2018-12-13T04:19:11.194Z,15.66
2018-12-13T04:20:12.943Z,15.66
2018-12-13T04:21:14.692Z,15.66
2018-12-13T04:22:16.467Z,15.66
2018-12-13T04:23:18.227Z,15.66
2018-12-13T04:24:19.985Z,15.65
2018-12-13T04:25:21.727Z,15.66
2018-12-13T04:26:23.486Z,15.66
2018-12-13T04:27:25.593Z,15.66
2018-12-13T04:28:27.364Z,15.66
2018-12-13T04:29:29.116Z,15.65
2018-12-13T04:30:37.487Z,15.66
2018-12-13T04:31:39.241Z,15.66
2018-12-13T04:32:41.029Z,15.66
2018-12-13T04:33:42.780Z,15.66
2018-12-13T04:34:44.542Z,15.65
2018-12-13T04:35:46.291Z,15.65
2018-12-13T04:36:48.053Z,15.66
2018-12-13T04:37:49.833Z,15.66
2018-12-13T04:38:51.587Z,15.67
2018-12-13T04:39:53.337Z,15.66
2018-12-13T04:40:55.091Z,15.66
2018-12-13T04:41:56.842Z,15.68
2018-12-13T04:42:58.613Z,15.67
2018-12-13T04:44:00.373Z,15.68
2018-12-13T04:45:02.135Z,15.67
2018-12-13T04:46:03.884Z,15.66
2018-12-13T04:47:05.649Z,15.67
2018-12-13T04:48:07.400Z,15.68
2018-12-13T04:49:09.163Z,15.68
2018-12-13T04:50:11.174Z,15.67
2018-12-13T04:51:12.936Z,15.68
2018-12-13T04:52:14.686Z,15.67
2018-12-13T04:53:16.475Z,15.67
2018-12-13T04:54:18.229Z,15.68
2018-12-13T04:55:20.311Z,15.69
2018-12-13T04:56:22.263Z,15.67
2018-12-13T04:57:24.066Z,15.68
2018-12-13T04:58:26.175Z,15.68
2018-12-13T04:59:27.989Z,15.66
2018-12-13T05:00:29.763Z,15.68
2018-12-13T05:01:31.521Z,15.67
2018-12-13T05:02:33.279Z,15.68
2018-12-13T05:03:35.060Z,15.67
2018-12-13T05:04:36.813Z,15.67
2018-12-13T05:05:38.575Z,15.68
2018-12-13T05:06:40.338Z,15.68
2018-12-13T05:07:42.099Z,15.68
2018-12-13T05:08:43.884Z,15.67
2018-12-13T05:09:45.657Z,15.68
2018-12-13T05:10:47.411Z,15.68
2018-12-13T05:11:49.181Z,15.68
2018-12-13T05:12:50.933Z,15.69
2018-12-13T05:13:52.695Z,15.68
2018-12-13T05:14:54.467Z,15.69
2018-12-13T05:15:56.249Z,15.69
2018-12-13T05:16:58.009Z,15.67
2018-12-13T05:17:59.774Z,15.69
2018-12-13T05:19:01.565Z,15.69
2018-12-13T05:20:03.337Z,15.70
2018-12-13T05:21:05.091Z,15.70
2018-12-13T05:22:06.845Z,15.71
2018-12-13T05:23:08.603Z,15.73
2018-12-13T05:24:10.385Z,15.71
2018-12-13T05:25:12.145Z,15.70
2018-12-13T05:26:13.897Z,15.70
2018-12-13T05:27:15.654Z,15.70
2018-12-13T05:28:17.404Z,15.68
2018-12-13T05:29:19.182Z,15.68
2018-12-13T05:30:20.945Z,15.69
2018-12-13T05:31:22.706Z,15.70
2018-12-13T05:32:24.467Z,15.69
2018-12-13T05:33:26.225Z,15.67
2018-12-13T05:34:28.363Z,15.68
2018-12-13T05:35:30.132Z,15.68
2018-12-13T05:36:31.888Z,15.67
2018-12-13T05:37:33.646Z,15.67
2018-12-13T05:38:35.410Z,15.66
2018-12-13T05:39:37.184Z,15.67
2018-12-13T05:40:38.934Z,15.66
2018-12-13T05:41:40.682Z,15.67
2018-12-13T05:42:42.446Z,15.66
2018-12-13T05:43:46.167Z,15.67
2018-12-13T05:44:47.932Z,15.68
2018-12-13T05:45:49.692Z,15.69
2018-12-13T05:46:51.444Z,15.69
2018-12-13T05:47:53.220Z,15.70
2018-12-13T05:48:54.978Z,15.72
2018-12-13T05:49:56.763Z,15.72
2018-12-13T05:50:58.521Z,15.73
2018-12-13T05:52:00.275Z,15.73
2018-12-13T05:53:02.018Z,15.72
2018-12-13T05:54:03.768Z,15.71
2018-12-13T05:55:05.548Z,15.71
2018-12-13T05:56:07.307Z,15.71
2018-12-13T05:57:09.073Z,15.72
2018-12-13T05:58:10.828Z,15.71
2018-12-13T05:59:12.586Z,15.71
2018-12-13T06:00:14.492Z,15.72
2018-12-13T06:01:16.244Z,15.72
2018-12-13T06:02:17.996Z,15.72
2018-12-13T06:03:19.751Z,15.74
2018-12-13T06:04:21.521Z,15.73
2018-12-13T06:05:23.303Z,15.73
2018-12-13T06:06:26.849Z,15.73
2018-12-13T06:07:28.664Z,15.74
2018-12-13T06:08:30.416Z,15.75
2018-12-13T06:09:32.162Z,15.74
2018-12-13T06:10:33.915Z,15.73
2018-12-13T06:11:35.661Z,15.73
2018-12-13T06:12:37.422Z,15.73
2018-12-13T06:13:39.296Z,15.72
2018-12-13T06:14:41.062Z,15.73
2018-12-13T06:15:42.833Z,15.73
2018-12-13T06:16:44.599Z,15.72
2018-12-13T06:17:46.348Z,15.73
2018-12-13T06:18:48.088Z,15.72
2018-12-13T06:19:49.836Z,15.72
2018-12-13T06:20:51.602Z,15.72
2018-12-13T06:21:53.360Z,15.72
2018-12-13T06:22:55.125Z,15.72
2018-12-13T06:23:56.884Z,15.72
2018-12-13T06:24:58.631Z,15.71
2018-12-13T06:26:00.404Z,15.71
2018-12-13T06:27:02.174Z,15.71
2018-12-13T06:28:03.934Z,15.71
2018-12-13T06:29:05.681Z,15.69
2018-12-13T06:30:07.827Z,15.70
2018-12-13T06:31:09.733Z,15.69
2018-12-13T06:32:12.233Z,15.68
2018-12-13T06:33:13.987Z,15.69
2018-12-13T06:34:15.740Z,15.68
2018-12-13T06:35:17.487Z,15.67
2018-12-13T06:36:19.261Z,15.67
2018-12-13T06:37:21.053Z,15.65
2018-12-13T06:38:22.883Z,15.65
2018-12-13T06:39:24.661Z,15.63
2018-12-13T06:40:26.417Z,15.63
2018-12-13T06:41:28.209Z,15.65
2018-12-13T06:42:29.957Z,15.62
2018-12-13T06:43:31.719Z,15.62
2018-12-13T06:44:33.503Z,15.62
2018-12-13T06:45:35.253Z,15.62
2018-12-13T06:46:37.042Z,15.60
2018-12-13T06:47:38.786Z,15.59
2018-12-13T06:48:40.529Z,15.59
2018-12-13T06:49:42.297Z,15.58
2018-12-13T06:50:44.083Z,15.59
2018-12-13T06:51:45.877Z,15.58
2018-12-13T06:52:47.627Z,15.58
2018-12-13T06:53:49.387Z,15.57
2018-12-13T06:54:51.149Z,15.56
2018-12-13T06:55:52.905Z,15.55
2018-12-13T06:56:54.704Z,15.54
2018-12-13T06:57:56.553Z,15.54
2018-12-13T06:58:58.319Z,15.53
2018-12-13T07:00:00.073Z,15.52
2018-12-13T07:01:01.827Z,15.53
2018-12-13T07:02:03.681Z,15.53
2018-12-13T07:03:05.441Z,15.51
2018-12-13T07:04:07.201Z,15.52
2018-12-13T07:05:08.947Z,15.52
2018-12-13T07:06:10.708Z,15.51
2018-12-13T07:07:12.471Z,15.51
2018-12-13T07:08:14.245Z,15.51
2018-12-13T07:09:15.999Z,15.50
2018-12-13T07:10:17.746Z,15.51
2018-12-13T07:11:19.498Z,15.50
2018-12-13T07:12:21.335Z,15.50
2018-12-13T07:13:23.098Z,15.49
2018-12-13T07:14:24.853Z,15.50
2018-12-13T07:15:26.617Z,15.49
2018-12-13T07:16:28.432Z,15.48
2018-12-13T07:17:30.282Z,15.48
2018-12-13T07:18:32.022Z,15.48
2018-12-13T07:19:33.776Z,15.47
2018-12-13T07:20:35.524Z,15.46
2018-12-13T07:21:38.225Z,15.47
2018-12-13T07:22:39.998Z,15.46
2018-12-13T07:23:41.769Z,15.45
2018-12-13T07:24:43.515Z,15.48
2018-12-13T07:25:45.272Z,15.47
2018-12-13T07:26:47.053Z,15.49
2018-12-13T07:27:48.822Z,15.50
2018-12-13T07:28:50.574Z,15.53
2018-12-13T07:29:52.336Z,15.55
2018-12-13T07:30:54.084Z,15.58
2018-12-13T07:31:55.834Z,15.60
2018-12-13T07:32:57.612Z,15.63
2018-12-13T07:33:59.374Z,15.66
2018-12-13T07:35:01.550Z,15.68
2018-12-13T07:36:03.636Z,15.70
2018-12-13T07:37:05.387Z,15.71
2018-12-13T07:38:07.170Z,15.72
2018-12-13T07:39:10.474Z,15.72
2018-12-13T07:40:12.240Z,15.72
2018-12-13T07:41:14.007Z,15.74
2018-12-13T07:42:15.797Z,15.75
2018-12-13T07:43:17.641Z,15.78
2018-12-13T07:44:19.407Z,15.78
2018-12-13T07:45:21.162Z,15.80
2018-12-13T07:46:22.920Z,15.82
2018-12-13T07:47:24.682Z,15.83
2018-12-13T07:48:26.453Z,15.83
2018-12-13T07:49:28.200Z,15.83
2018-12-13T07:50:29.962Z,15.84
2018-12-13T07:51:31.720Z,15.86
2018-12-13T07:52:33.488Z,15.85
2018-12-13T07:53:35.756Z,15.86
2018-12-13T07:54:37.727Z,15.85
2018-12-13T07:55:39.494Z,15.86
2018-12-13T07:56:41.235Z,15.86
2018-12-13T07:57:42.982Z,15.85
2018-12-13T07:58:44.750Z,15.84
2018-12-13T07:59:46.508Z,15.84
2018-12-13T08:00:48.262Z,15.85
2018-12-13T08:01:50.023Z,15.84
2018-12-13T08:02:51.782Z,15.83
2018-12-13T08:03:53.721Z,15.83
2018-12-13T08:04:55.487Z,15.81
2018-12-13T08:05:57.234Z,15.80
2018-12-13T08:06:59.000Z,15.80
2018-12-13T08:08:00.770Z,15.80
2018-12-13T08:09:02.634Z,15.80
2018-12-13T08:10:04.385Z,15.79
2018-12-13T08:11:06.150Z,15.78
2018-12-13T08:12:07.910Z,15.77
2018-12-13T08:13:09.660Z,15.78
2018-12-13T08:14:11.428Z,15.77
2018-12-13T08:15:13.192Z,15.76
2018-12-13T08:16:14.946Z,15.74
2018-12-13T08:17:16.707Z,15.75
2018-12-13T08:18:18.467Z,15.73
2018-12-13T08:19:20.232Z,15.73
2018-12-13T08:20:21.986Z,15.71
2018-12-13T08:21:23.750Z,15.71
2018-12-13T08:22:25.514Z,15.71
2018-12-13T08:23:27.376Z,15.68
2018-12-13T08:24:29.164Z,15.67
2018-12-13T08:25:31.020Z,15.66
2018-12-13T08:26:32.856Z,15.65
2018-12-13T08:27:34.629Z,15.64
2018-12-13T08:28:36.391Z,15.64
2018-12-13T08:29:38.183Z,15.63
2018-12-13T08:30:39.922Z,15.62
2018-12-13T08:31:41.681Z,15.62
2018-12-13T08:32:43.440Z,15.61
2018-12-13T08:33:45.180Z,15.62
2018-12-13T08:34:46.953Z,15.60
2018-12-13T08:35:48.705Z,15.59
2018-12-13T08:36:50.444Z,15.59
2018-12-13T08:37:52.196Z,15.60
2018-12-13T08:38:53.949Z,15.60
2018-12-13T08:39:55.746Z,15.59
2018-12-13T08:40:57.513Z,15.58
2018-12-13T08:41:59.255Z,15.58
2018-12-13T08:43:02.396Z,15.57
2018-12-13T08:44:06.132Z,15.58
2018-12-13T08:45:07.898Z,15.57
2018-12-13T08:46:11.114Z,15.57
2018-12-13T08:47:12.903Z,15.56
2018-12-13T08:48:14.644Z,15.55
2018-12-13T08:49:16.396Z,15.55
2018-12-13T08:50:18.168Z,15.55
2018-12-13T08:51:19.950Z,15.55
2018-12-13T08:52:21.705Z,15.54
2018-12-13T08:53:23.463Z,15.54
2018-12-13T08:54:25.213Z,15.53
2018-12-13T08:55:27.003Z,15.53
2018-12-13T08:56:28.768Z,15.53
2018-12-13T08:57:30.524Z,15.53
2018-12-13T08:58:32.301Z,15.53
2018-12-13T08:59:34.057Z,15.53
2018-12-13T09:00:35.826Z,15.52
2018-12-13T09:01:37.585Z,15.51
2018-12-13T09:02:39.331Z,15.51
2018-12-13T09:03:41.090Z,15.51
2018-12-13T09:04:42.840Z,15.51
2018-12-13T09:05:44.603Z,15.51
2018-12-13T09:06:47.670Z,15.51
2018-12-13T09:07:49.543Z,15.51
2018-12-13T09:08:51.309Z,15.52
2018-12-13T09:09:53.079Z,15.50
2018-12-13T09:10:54.828Z,15.50
2018-12-13T09:11:56.573Z,15.50
2018-12-13T09:12:58.331Z,15.51
2018-12-13T09:14:00.883Z,15.50
2018-12-13T09:15:02.785Z,15.50
2018-12-13T09:16:04.560Z,15.49
2018-12-13T09:17:06.318Z,15.48
2018-12-13T09:18:08.074Z,15.49
2018-12-13T09:19:09.840Z,15.48
2018-12-13T09:20:11.594Z,15.48
2018-12-13T09:21:13.351Z,15.48
2018-12-13T09:22:15.104Z,15.49
2018-12-13T09:23:16.861Z,15.49
2018-12-13T09:24:18.620Z,15.48
2018-12-13T09:25:20.490Z,15.50
2018-12-13T09:26:22.276Z,15.51
2018-12-13T09:27:24.045Z,15.53
2018-12-13T09:28:25.784Z,15.56
2018-12-13T09:29:27.556Z,15.57
2018-12-13T09:30:29.410Z,15.59
2018-12-13T09:31:31.238Z,15.61
2018-12-13T09:32:32.998Z,15.64
2018-12-13T09:33:36.364Z,15.65
2018-12-13T09:34:38.111Z,15.66
2018-12-13T09:35:39.848Z,15.68
2018-12-13T09:36:41.648Z,15.68
2018-12-13T09:37:47.500Z,15.71
2018-12-13T09:38:47.168Z,15.72
2018-12-13T09:39:48.964Z,15.73
2018-12-13T09:40:50.716Z,15.75
2018-12-13T09:41:52.496Z,15.77
2018-12-13T09:42:54.254Z,15.78
2018-12-13T09:43:55.996Z,15.81
2018-12-13T09:44:57.754Z,15.82
2018-12-13T09:45:59.512Z,15.81
2018-12-13T09:47:01.272Z,15.83
2018-12-13T09:48:03.040Z,15.84
2018-12-13T09:49:04.802Z,15.83
2018-12-13T09:50:06.564Z,15.84
2018-12-13T09:51:08.317Z,15.85
2018-12-13T09:52:10.128Z,15.85
2018-12-13T09:53:11.880Z,15.85
2018-12-13T09:54:13.628Z,15.85
2018-12-13T09:55:15.398Z,15.86
2018-12-13T09:56:17.147Z,15.86
2018-12-13T09:57:18.911Z,15.85
2018-12-13T09:58:20.665Z,15.85
2018-12-13T09:59:22.425Z,15.84
2018-12-13T10:00:24.200Z,15.84
2018-12-13T10:01:25.975Z,15.82
2018-12-13T10:02:27.757Z,15.83
2018-12-13T10:03:29.520Z,15.82
2018-12-13T10:04:31.265Z,15.80
2018-12-13T10:05:33.026Z,15.80
2018-12-13T10:06:34.835Z,15.80
2018-12-13T10:07:36.724Z,15.80
2018-12-13T10:08:38.483Z,15.79
2018-12-13T10:09:40.276Z,15.79
2018-12-13T10:10:42.049Z,15.79
2018-12-13T10:11:43.803Z,15.78
2018-12-13T10:12:45.584Z,15.78
2018-12-13T10:13:47.347Z,15.78
2018-12-13T10:14:49.100Z,15.78
2018-12-13T10:15:50.862Z,15.78
2018-12-13T10:16:52.625Z,15.77
2018-12-13T10:17:54.409Z,15.76
2018-12-13T10:18:56.177Z,15.77
2018-12-13T10:19:57.921Z,15.75
2018-12-13T10:20:59.665Z,15.75
2018-12-13T10:22:01.417Z,15.75
2018-12-13T10:23:03.216Z,15.74
2018-12-13T10:24:04.957Z,15.74
2018-12-13T10:25:06.726Z,15.73
2018-12-13T10:26:08.475Z,15.72
2018-12-13T10:27:10.242Z,15.71
2018-12-13T10:28:12.016Z,15.71
2018-12-13T10:29:15.084Z,15.71
2018-12-13T10:30:17.048Z,15.70
2018-12-13T10:31:18.812Z,15.70
2018-12-13T10:32:20.575Z,15.70
2018-12-13T10:33:22.787Z,15.69
2018-12-13T10:34:24.542Z,15.68
2018-12-13T10:35:26.320Z,15.70
2018-12-13T10:36:28.087Z,15.69
2018-12-13T10:37:29.907Z,15.68
2018-12-13T10:38:31.777Z,15.67
2018-12-13T10:39:33.533Z,15.67
2018-12-13T10:40:35.291Z,15.66
2018-12-13T10:41:37.090Z,15.65
2018-12-13T10:42:38.843Z,15.65
2018-12-13T10:43:40.617Z,15.65
2018-12-13T10:44:42.454Z,15.65
2018-12-13T10:45:44.219Z,15.66
2018-12-13T10:46:45.976Z,15.66
2018-12-13T10:47:47.724Z,15.65
2018-12-13T10:48:49.490Z,15.64
2018-12-13T10:49:51.260Z,15.64
2018-12-13T10:50:53.005Z,15.63
2018-12-13T10:51:54.770Z,15.62
2018-12-13T10:52:56.514Z,15.64
2018-12-13T10:53:58.308Z,15.64
2018-12-13T10:55:01.032Z,15.64
2018-12-13T10:56:02.824Z,15.62
2018-12-13T10:57:04.654Z,15.62
2018-12-13T10:58:06.416Z,15.62
2018-12-13T10:59:08.208Z,15.62
2018-12-13T11:00:14.409Z,15.63
2018-12-13T11:01:21.832Z,15.62
2018-12-13T11:02:29.090Z,15.59
2018-12-13T11:03:37.302Z,15.60
2018-12-13T11:04:39.108Z,15.63
2018-12-13T11:05:40.880Z,15.61
2018-12-13T11:06:42.642Z,15.60
2018-12-13T11:07:44.408Z,15.60
2018-12-13T11:08:46.174Z,15.59
2018-12-13T11:09:47.969Z,15.58
2018-12-13T11:10:49.717Z,15.60
2018-12-13T11:11:52.094Z,15.60
2018-12-13T11:12:53.846Z,15.60
2018-12-13T11:13:55.610Z,15.59
2018-12-13T11:14:57.387Z,15.57
2018-12-13T11:15:59.157Z,15.57
2018-12-13T11:17:00.907Z,15.57
2018-12-13T11:18:02.665Z,15.56
2018-12-13T11:19:04.409Z,15.55
2018-12-13T11:20:06.197Z,15.54
2018-12-13T11:21:07.947Z,15.53
2018-12-13T11:22:09.708Z,15.53
2018-12-13T11:23:11.534Z,15.54
2018-12-13T11:24:13.349Z,15.53
2018-12-13T11:25:15.896Z,15.53
2018-12-13T11:26:17.673Z,15.53
2018-12-13T11:27:19.425Z,15.53
2018-12-13T11:28:21.178Z,15.52
2018-12-13T11:29:23.457Z,15.53
2018-12-13T11:30:25.245Z,15.53
2018-12-13T11:31:26.990Z,15.52
2018-12-13T11:32:28.755Z,15.51
2018-12-13T11:33:30.527Z,15.51
2018-12-13T11:34:32.298Z,15.50
2018-12-13T11:35:34.074Z,15.51
2018-12-13T11:36:35.836Z,15.51
2018-12-13T11:37:37.631Z,15.50
2018-12-13T11:38:39.390Z,15.50
2018-12-13T11:39:41.145Z,15.50
2018-12-13T11:40:44.405Z,15.50
2018-12-13T11:41:46.166Z,15.49
2018-12-13T11:42:47.920Z,15.49
2018-12-13T11:43:49.700Z,15.49
2018-12-13T11:44:51.468Z,15.48
2018-12-13T11:45:53.240Z,15.48
2018-12-13T11:46:54.998Z,15.48
2018-12-13T11:47:56.760Z,15.47
2018-12-13T11:48:58.524Z,15.46
2018-12-13T11:50:00.273Z,15.46
2018-12-13T11:51:02.068Z,15.46
2018-12-13T11:52:03.837Z,15.45
2018-12-13T11:53:06.750Z,15.46
2018-12-13T11:54:08.504Z,15.46
2018-12-13T11:55:11.405Z,15.47
2018-12-13T11:56:14.554Z,15.47
2018-12-13T11:57:16.329Z,15.46
2018-12-13T11:58:18.090Z,15.46
2018-12-13T11:59:19.911Z,15.45
2018-12-13T12:00:21.701Z,15.46
2018-12-13T12:01:23.490Z,15.46
2018-12-13T12:02:25.250Z,15.46
2018-12-13T12:03:27.009Z,15.47
2018-12-13T12:04:28.776Z,15.46
2018-12-13T12:05:30.552Z,15.46
2018-12-13T12:06:32.338Z,15.46
2018-12-13T12:07:34.087Z,15.46
2018-12-13T12:08:35.850Z,15.45
2018-12-13T12:09:37.601Z,15.45
2018-12-13T12:10:39.366Z,15.45
2018-12-13T12:11:41.629Z,15.46
2018-12-13T12:12:43.379Z,15.47
2018-12-13T12:13:45.124Z,15.46
2018-12-13T12:14:46.893Z,15.48
2018-12-13T12:15:48.650Z,15.47
2018-12-13T12:16:50.492Z,15.47
2018-12-13T12:17:52.321Z,15.49
2018-12-13T12:18:54.093Z,15.50
2018-12-13T12:19:55.856Z,15.50
2018-12-13T12:20:57.641Z,15.51
2018-12-13T12:21:59.423Z,15.52
2018-12-13T12:23:01.179Z,15.53
2018-12-13T12:24:02.939Z,15.55
2018-12-13T12:25:04.690Z,15.58
2018-12-13T12:26:06.432Z,15.61
2018-12-13T12:27:08.629Z,15.63
2018-12-13T12:28:10.663Z,15.65
2018-12-13T12:29:12.433Z,15.67
2018-12-13T12:30:14.214Z,15.69
2018-12-13T12:31:15.967Z,15.71
2018-12-13T12:32:17.749Z,15.73
2018-12-13T12:33:19.503Z,15.74
2018-12-13T12:34:21.269Z,15.76
2018-12-13T12:35:23.034Z,15.77
2018-12-13T12:36:24.814Z,15.79
2018-12-13T12:37:26.637Z,15.83
2018-12-13T12:38:28.382Z,15.85
2018-12-13T12:39:30.143Z,15.87
2018-12-13T12:40:32.267Z,15.88
2018-12-13T12:41:34.041Z,15.91
2018-12-13T12:42:35.824Z,15.92
2018-12-13T12:43:37.574Z,15.91
2018-12-13T12:44:41.594Z,15.93
2018-12-13T12:45:43.346Z,15.93
2018-12-13T12:46:45.092Z,15.94
2018-12-13T12:47:46.902Z,15.93
2018-12-13T12:48:48.649Z,15.93
2018-12-13T12:49:50.411Z,15.91
2018-12-13T12:50:52.173Z,15.89
2018-12-13T12:51:53.926Z,15.88
2018-12-13T12:52:55.718Z,15.88
2018-12-13T12:53:57.472Z,15.87
2018-12-13T12:54:59.238Z,15.87
2018-12-13T12:56:01.008Z,15.88
2018-12-13T12:57:02.790Z,15.88
2018-12-13T12:58:04.585Z,15.87
2018-12-13T12:59:06.333Z,15.89
2018-12-13T13:00:08.182Z,15.87
2018-12-13T13:01:09.954Z,15.87
2018-12-13T13:02:11.720Z,15.87
2018-12-13T13:03:14.315Z,15.84
2018-12-13T13:04:16.159Z,15.84
2018-12-13T13:05:17.985Z,15.82
2018-12-13T13:06:19.743Z,15.82
2018-12-13T13:07:21.528Z,15.82
2018-12-13T13:08:23.927Z,15.80
2018-12-13T13:09:26.784Z,15.79
2018-12-13T13:10:28.545Z,15.79
2018-12-13T13:11:30.306Z,15.77
2018-12-13T13:12:32.061Z,15.76
2018-12-13T13:13:33.842Z,15.75
2018-12-13T13:14:35.596Z,15.74
2018-12-13T13:15:37.364Z,15.72
2018-12-13T13:16:39.118Z,15.74